Guadalajara Don Miguel, Mexico

9:32 PM CDT on August 31, 2015 (GMT -0500)
Don Miguel Hidalgo International | | Change Station
CLOSE
Current Station
Airport
Location: Guadalajara Don Miguel,
Elevation: 5013 ft
Nearby Weather Stations

Elev 5013 ft 20.52 °N, 103.31 °W | Updated 40 minutes ago

Mostly Cloudy
Mostly Cloudy
70 °F
Feels Like 70 °F
N
0
Wind Variable Wind from North

Today
High -- | Low -- °F
--% Chance of Precip.
Yesterday
High -- | Low -- °F
Precip. -- in
7:37 AM 8:09 PM
Waning Gibbous, 92% visible
Pressure 30.16 in
Visibility 10.0 miles
Clouds Scattered Clouds 3000 ft
Mostly Cloudy 9000 ft
Mostly Cloudy 30000 ft
Dew Point 59 °F
Humidity 68%
Rainfall 0.00 in
Snow Depth Not available.
UV 0 out of 12
Pollen Not available.
Air Quality Not available.
Flu Activity Not available.
METAR MMGL 010152Z 00000KT 10SM SCT030 BKN090 BKN300 21/15 A3016 RMK 8/538
Pressure 30.16 in
Visibility 10.0 miles
Clouds Scattered Clouds 3000 ft
Mostly Cloudy 9000 ft
Mostly Cloudy 30000 ft
Dew Point 59 °F
Humidity 68%
Rainfall 0.00 in
Snow Depth Not available.
UV 0 out of 12
Pollen Not available.
Air Quality Not available.
Flu Activity Not available.
METAR MMGL 010152Z 00000KT 10SM SCT030 BKN090 BKN300 21/15 A3016 RMK 8/538

10-Day Weather Forecast

×

Almanac

Astronomy

Aug. 31, 2015 Rise Set
Actual Time
Civil Twilight
Nautical Twilight
Astronomical Twilight
Moon
Length of Visible Light
Length of Day
Tomorrow will be .
, % of the Moon is Illuminated

Today's Extremes

Country Highs Country Lows

Community

WunderPhotos

Upload Photos

1,851,455 photos uploaded!

WunderBlogs® & News

Nearby

Air Quality

  Air Quality AQ Index Pollutant
Not available.

Snow Depth

Station Depth Elevation

Earthquake Activity

City Distance Mag. Time & Date
Minimum magnitude displayed is 2.5.

Coastal Water Temperatures

Place Temperature

Stations

Nearby Weather Stations

Station Location Temp. Windchill Dew Point Humidity Wind Precip. Elev Updated Type